Time;durP1;ratioP1;P1;durP2;ratioP2;P2;SDS_P1;SDS_P2;PMS_P1;PMS_P2;Temp;Humidity;BMP_temperature;BMP_pressure;BME280_temperature;BME280_humidity;BME280_pressure;Samples;Min_cycle;Max_cycle;Signal;HPM_P1;HPM_P2
2021/06/13 00:01:23;;;;;;;0.40;0.20;;;19.80;99.90;;;;;;4992260;28;20894;-76
2021/06/13 00:03:49;;;;;;;0.40;0.30;;;19.80;99.90;;;;;;4992893;28;20378;-76
2021/06/13 00:06:15;;;;;;;0.40;0.30;;;19.80;99.90;;;;;;4992489;28;20403;-75
2021/06/13 00:08:41;;;;;;;0.40;0.20;;;19.70;99.90;;;;;;4992270;28;20413;-76
2021/06/13 00:11:07;;;;;;;0.40;0.25;;;19.60;99.90;;;;;;4992321;28;20374;-76
2021/06/13 00:13:33;;;;;;;0.40;0.30;;;19.60;99.90;;;;;;4991648;28;20899;-76
2021/06/13 00:15:59;;;;;;;0.40;0.30;;;19.60;99.90;;;;;;4992606;28;20385;-76
2021/06/13 00:18:25;;;;;;;0.40;0.20;;;19.60;99.90;;;;;;4990499;28;20434;-76
2021/06/13 00:20:52;;;;;;;0.40;0.20;;;19.50;99.90;;;;;;4992596;28;20430;-75
2021/06/13 00:23:18;;;;;;;0.40;0.20;;;19.60;99.90;;;;;;4992250;28;20483;-76
2021/06/13 00:25:44;;;;;;;0.40;0.30;;;19.50;99.90;;;;;;4991693;28;20474;-75
2021/06/13 00:28:10;;;;;;;0.40;0.20;;;19.40;99.90;;;;;;4992431;28;20387;-76
2021/06/13 00:30:36;;;;;;;0.40;0.30;;;19.30;99.90;;;;;;4991660;28;20395;-76
2021/06/13 00:33:02;;;;;;;0.40;0.30;;;19.20;99.90;;;;;;4991928;28;20469;-75
2021/06/13 00:35:28;;;;;;;0.40;0.20;;;19.00;99.90;;;;;;4991696;28;20782;-75
2021/06/13 00:37:53;;;;;;;0.40;0.30;;;19.20;99.90;;;;;;4992409;28;20469;-76
2021/06/13 00:40:22;;;;;;;0.40;0.20;;;19.40;99.90;;;;;;4992107;28;20578;-76
2021/06/13 00:42:48;;;;;;;0.40;0.30;;;19.40;99.90;;;;;;4992217;28;20394;-76
2021/06/13 00:45:14;;;;;;;0.40;0.30;;;19.30;99.90;;;;;;4991941;28;20438;-76
2021/06/13 00:47:41;;;;;;;0.40;0.30;;;19.20;99.90;;;;;;4991365;28;20751;-75
2021/06/13 00:50:10;;;;;;;0.40;0.30;;;19.20;99.90;;;;;;4992078;28;20453;-75
2021/06/13 00:52:35;;;;;;;0.40;0.20;;;19.20;99.90;;;;;;4991389;28;20906;-74
2021/06/13 00:55:03;;;;;;;0.40;0.20;;;19.10;99.90;;;;;;4990749;28;20395;-75
2021/06/13 00:57:29;;;;;;;0.40;0.30;;;19.20;99.90;;;;;;4991417;28;20802;-75
2021/06/13 00:59:54;;;;;;;0.40;0.30;;;19.00;99.90;;;;;;4991685;28;20394;-75
2021/06/13 01:02:20;;;;;;;0.40;0.20;;;18.90;99.90;;;;;;4991564;28;20397;-75
2021/06/13 01:04:46;;;;;;;0.40;0.20;;;18.90;99.90;;;;;;4991012;28;20387;-75
2021/06/13 01:07:30;;;;;;;0.40;0.20;;;18.80;99.90;;;;;;4991869;28;20794;-75
2021/06/13 01:10:05;;;;;;;0.40;0.20;;;19.00;99.90;;;;;;4991530;28;20896;-75
2021/06/13 01:12:57;;;;;;;0.40;0.30;;;18.80;99.90;;;;;;4991081;28;20512;-76
2021/06/13 01:15:29;;;;;;;0.40;0.30;;;18.70;99.90;;;;;;4992024;28;20422;-75
2021/06/13 01:18:05;;;;;;;0.40;0.30;;;18.60;99.90;;;;;;4991638;28;20391;-75
2021/06/13 01:20:46;;;;;;;0.40;0.20;;;18.50;99.90;;;;;;4991199;28;20774;-75
2021/06/13 01:23:43;;;;;;;0.40;0.20;;;18.40;99.90;;;;;;4991684;28;20485;-75
2021/06/13 01:26:30;;;;;;;0.40;0.20;;;18.50;99.90;;;;;;4991788;28;20735;-74
2021/06/13 01:29:18;;;;;;;0.40;0.20;;;18.40;99.90;;;;;;4991172;28;20391;-74
2021/06/13 01:32:14;;;;;;;0.40;0.20;;;18.20;99.90;;;;;;4992040;28;20426;-74
2021/06/13 01:34:46;;;;;;;0.40;0.20;;;18.20;99.90;;;;;;4987908;28;20400;-75
2021/06/13 01:37:15;;;;;;;0.40;0.20;;;18.10;99.90;;;;;;4995475;28;20464;-75
2021/06/13 01:39:45;;;;;;;0.40;0.20;;;17.90;99.90;;;;;;4994898;28;20432;-75
2021/06/13 01:42:13;;;;;;;0.40;0.20;;;17.90;99.90;;;;;;4995187;28;20901;-74
2021/06/13 01:44:45;;;;;;;0.40;0.30;;;17.80;99.90;;;;;;4994524;28;20398;-75
2021/06/13 01:47:11;;;;;;;0.40;0.30;;;17.80;99.90;;;;;;4995410;28;20382;-75
2021/06/13 01:49:39;;;;;;;0.40;0.30;;;17.80;99.90;;;;;;4977503;28;20410;-75
2021/06/13 01:52:06;;;;;;;0.40;0.20;;;17.70;99.90;;;;;;4994843;28;20903;-75
2021/06/13 01:54:32;;;;;;;0.40;0.20;;;17.70;99.90;;;;;;4994657;28;20516;-75
2021/06/13 01:56:58;;;;;;;0.40;0.20;;;17.50;99.90;;;;;;4995391;28;20394;-75
2021/06/13 01:59:25;;;;;;;0.40;0.30;;;17.60;99.90;;;;;;4995141;28;20485;-75
2021/06/13 02:01:55;;;;;;;0.40;0.30;;;17.40;99.90;;;;;;4994871;28;20485;-75
2021/06/13 02:04:23;;;;;;;0.40;0.20;;;17.50;99.90;;;;;;4993638;28;20398;-75
2021/06/13 02:06:57;;;;;;;0.40;0.20;;;17.50;99.90;;;;;;4994256;28;20394;-75
2021/06/13 02:09:23;;;;;;;0.40;0.20;;;17.40;99.90;;;;;;4995049;28;20459;-75
2021/06/13 02:11:50;;;;;;;0.40;0.20;;;17.30;99.90;;;;;;4994337;28;20425;-75
2021/06/13 02:14:19;;;;;;;0.40;0.20;;;17.30;99.90;;;;;;4994555;28;20970;-75
2021/06/13 02:16:46;;;;;;;0.40;0.20;;;17.30;99.90;;;;;;4994646;28;20871;-75
2021/06/13 02:19:15;;;;;;;0.40;0.20;;;17.20;99.90;;;;;;4994789;28;20433;-75
2021/06/13 02:21:46;;;;;;;0.40;0.30;;;17.10;99.90;;;;;;4994194;28;20402;-75
2021/06/13 02:24:15;;;;;;;0.40;0.20;;;17.20;99.90;;;;;;4994600;28;20457;-75
2021/06/13 02:26:42;;;;;;;0.40;0.30;;;17.10;99.90;;;;;;4994018;28;20683;-75
2021/06/13 02:29:10;;;;;;;0.40;0.20;;;17.10;99.90;;;;;;4994641;28;20391;-75
2021/06/13 02:31:40;;;;;;;0.40;0.20;;;17.20;99.90;;;;;;4994059;28;20414;-75
2021/06/13 02:34:07;;;;;;;0.40;0.20;;;17.00;99.90;;;;;;4994261;28;20378;-75
2021/06/13 02:36:33;;;;;;;0.40;0.20;;;17.00;99.90;;;;;;4993916;28;20429;-76
2021/06/13 02:39:00;;;;;;;0.40;0.30;;;16.90;99.90;;;;;;4994740;28;20387;-75
2021/06/13 02:41:26;;;;;;;0.40;0.20;;;17.10;99.90;;;;;;4994457;28;20386;-75
2021/06/13 02:43:53;;;;;;;0.40;0.20;;;17.00;99.90;;;;;;4992747;28;20407;-75
2021/06/13 02:46:19;;;;;;;0.40;0.20;;;17.00;99.90;;;;;;4994344;28;20394;-75
2021/06/13 02:48:44;;;;;;;0.40;0.30;;;17.00;99.90;;;;;;4993614;28;20688;-75
2021/06/13 02:51:13;;;;;;;0.40;0.30;;;17.00;99.90;;;;;;4993799;28;20387;-75
2021/06/13 02:53:43;;;;;;;0.40;0.30;;;17.00;99.90;;;;;;4993533;28;20382;-75
2021/06/13 02:56:30;;;;;;;0.40;0.20;;;17.10;99.90;;;;;;4994269;28;20394;-74
2021/06/13 02:59:36;;;;;;;0.40;0.30;;;17.00;99.90;;;;;;4994378;28;20390;-75
2021/06/13 03:02:05;;;;;;;0.40;0.20;;;17.00;99.90;;;;;;4950029;28;20738;-74
2021/06/13 03:04:32;;;;;;;0.40;0.20;;;17.00;99.90;;;;;;4993781;28;20391;-74
2021/06/13 03:06:59;;;;;;;0.40;0.30;;;16.90;99.90;;;;;;4993886;28;20383;-74
2021/06/13 03:09:27;;;;;;;0.40;0.20;;;16.80;99.90;;;;;;4993780;28;20383;-74
2021/06/13 03:11:54;;;;;;;0.40;0.30;;;16.70;99.90;;;;;;4993250;28;20418;-75
2021/06/13 03:14:21;;;;;;;0.40;0.20;;;16.70;99.90;;;;;;4993033;28;20509;-74
2021/06/13 03:16:48;;;;;;;0.40;0.20;;;16.80;99.90;;;;;;4993109;28;20454;-75
2021/06/13 03:19:15;;;;;;;0.40;0.30;;;16.80;99.90;;;;;;4992284;28;20390;-74
2021/06/13 03:21:42;;;;;;;0.40;0.30;;;16.70;99.90;;;;;;4993036;28;20453;-75
2021/06/13 03:24:08;;;;;;;0.40;0.20;;;16.60;99.90;;;;;;4993867;28;20465;-75
2021/06/13 03:26:36;;;;;;;0.40;0.30;;;16.60;99.90;;;;;;4992885;28;20540;-75
2021/06/13 03:29:03;;;;;;;0.40;0.20;;;16.60;99.90;;;;;;4993230;28;20395;-74
2021/06/13 03:31:29;;;;;;;0.40;0.20;;;16.60;99.90;;;;;;4993032;28;20445;-75
2021/06/13 03:33:56;;;;;;;0.40;0.30;;;16.50;99.90;;;;;;4992217;28;20878;-74
2021/06/13 03:36:23;;;;;;;0.40;0.30;;;16.30;99.90;;;;;;4975639;28;20774;-75
2021/06/13 03:38:50;;;;;;;0.40;0.20;;;16.30;99.90;;;;;;4992236;28;20855;-75
2021/06/13 03:41:20;;;;;;;0.40;0.20;;;16.40;99.90;;;;;;4993318;28;20387;-75
2021/06/13 03:43:46;;;;;;;0.40;0.20;;;16.50;99.90;;;;;;4992492;28;20694;-75
2021/06/13 03:46:13;;;;;;;0.40;0.30;;;16.40;99.90;;;;;;4993153;28;20417;-74
2021/06/13 03:48:42;;;;;;;0.40;0.20;;;16.40;99.90;;;;;;4992265;28;20457;-75
2021/06/13 03:51:11;;;;;;;0.40;0.20;;;16.40;99.90;;;;;;4992915;28;20469;-74
2021/06/13 03:53:46;;;;;;;0.40;0.20;;;16.30;99.90;;;;;;4992152;28;20466;-75
2021/06/13 03:56:17;;;;;;;0.40;0.20;;;16.40;99.90;;;;;;4992760;28;20395;-74
2021/06/13 03:58:44;;;;;;;0.40;0.30;;;16.40;99.90;;;;;;4992246;28;20399;-74
2021/06/13 04:01:14;;;;;;;0.40;0.20;;;16.30;99.90;;;;;;4992898;28;20475;-74
2021/06/13 04:03:48;;;;;;;0.40;0.30;;;16.30;99.90;;;;;;4992529;28;20414;-75
2021/06/13 04:06:14;;;;;;;0.40;0.30;;;16.30;99.90;;;;;;4993008;28;20389;-74
2021/06/13 04:08:41;;;;;;;0.40;0.30;;;16.40;99.90;;;;;;4992258;28;20382;-75
2021/06/13 04:11:09;;;;;;;0.40;0.20;;;16.30;99.90;;;;;;4993017;28;20724;-75
2021/06/13 04:13:36;;;;;;;0.40;0.30;;;16.30;99.90;;;;;;4974508;28;20487;-76
2021/06/13 04:16:08;;;;;;;0.40;0.20;;;16.30;99.90;;;;;;4992815;28;20374;-75
2021/06/13 04:18:35;;;;;;;0.40;0.20;;;16.20;99.90;;;;;;4992806;28;20457;-75
2021/06/13 04:21:02;;;;;;;0.40;0.20;;;16.20;99.90;;;;;;4992661;28;20445;-75
2021/06/13 04:23:29;;;;;;;0.40;0.20;;;16.30;99.90;;;;;;4992898;28;20410;-75
2021/06/13 04:25:57;;;;;;;0.40;0.30;;;16.30;99.90;;;;;;4992045;28;20387;-75
2021/06/13 04:28:22;;;;;;;0.40;0.30;;;16.20;99.90;;;;;;4992584;28;20397;-74
2021/06/13 04:31:13;;;;;;;0.40;0.20;;;16.20;99.90;;;;;;4991964;28;20416;-75
2021/06/13 04:33:40;;;;;;;0.40;0.20;;;16.20;99.90;;;;;;4991891;28;20411;-75
2021/06/13 04:36:07;;;;;;;0.40;0.30;;;16.20;99.90;;;;;;4992452;28;20390;-75
2021/06/13 04:38:33;;;;;;;0.40;0.20;;;16.20;99.90;;;;;;4992483;28;20525;-75
2021/06/13 04:40:59;;;;;;;0.40;0.20;;;16.10;99.90;;;;;;4991846;28;20429;-75
2021/06/13 04:43:25;;;;;;;0.40;0.20;;;16.20;99.90;;;;;;4992399;28;20413;-75
2021/06/13 04:45:51;;;;;;;0.40;0.30;;;16.20;99.90;;;;;;4991691;28;20387;-75
2021/06/13 04:48:18;;;;;;;0.40;0.20;;;16.20;99.90;;;;;;4992060;28;20382;-75
2021/06/13 04:50:43;;;;;;;0.40;0.20;;;16.40;99.90;;;;;;4991812;28;20462;-75
2021/06/13 04:53:54;;;;;;;0.40;0.30;;;16.40;99.90;;;;;;4991903;28;20477;-75
2021/06/13 04:56:28;;;;;;;0.40;0.20;;;16.50;99.90;;;;;;4992212;28;20466;-75
2021/06/13 04:58:54;;;;;;;0.40;0.20;;;16.50;99.90;;;;;;4991318;28;20383;-75
2021/06/13 05:01:20;;;;;;;0.40;0.30;;;16.50;99.90;;;;;;4991746;28;20391;-75
2021/06/13 05:03:46;;;;;;;0.40;0.20;;;16.50;99.90;;;;;;4991478;28;20418;-75
2021/06/13 05:06:13;;;;;;;0.40;0.20;;;16.60;99.90;;;;;;4991184;28;20406;-75
2021/06/13 05:08:42;;;;;;;0.40;0.30;;;16.50;99.90;;;;;;4991508;28;20394;-76
2021/06/13 05:11:08;;;;;;;0.40;0.20;;;16.60;99.90;;;;;;4991828;28;20464;-76
2021/06/13 05:13:34;;;;;;;0.40;0.20;;;16.60;99.90;;;;;;4991849;28;20398;-75
2021/06/13 05:16:00;;;;;;;0.40;0.20;;;16.60;99.90;;;;;;4990887;28;20467;-76
2021/06/13 05:18:25;;;;;;;0.40;0.30;;;16.70;99.90;;;;;;4991648;28;20393;-76
2021/06/13 05:20:54;;;;;;;0.40;0.20;;;16.70;99.90;;;;;;4991160;28;20748;-75
2021/06/13 05:23:21;;;;;;;0.40;0.20;;;16.80;99.90;;;;;;4991780;28;20405;-75
2021/06/13 05:25:48;;;;;;;0.40;0.20;;;16.90;99.90;;;;;;4991136;28;20397;-75
2021/06/13 05:28:14;;;;;;;0.40;0.20;;;16.90;99.90;;;;;;4991689;28;20386;-75
2021/06/13 05:30:40;;;;;;;0.40;0.30;;;16.90;99.90;;;;;;4991129;28;20859;-76
2021/06/13 05:33:07;;;;;;;0.40;0.20;;;16.90;99.90;;;;;;4991684;28;20419;-75
2021/06/13 05:35:34;;;;;;;0.40;0.30;;;17.00;99.90;;;;;;4991606;28;20395;-75
2021/06/13 05:38:00;;;;;;;0.40;0.30;;;17.10;99.90;;;;;;4990908;28;20889;-75
2021/06/13 05:40:27;;;;;;;0.40;0.20;;;17.10;99.90;;;;;;4991616;28;20387;-75
2021/06/13 05:42:53;;;;;;;0.40;0.20;;;17.10;99.90;;;;;;4991011;28;20441;-75
2021/06/13 05:45:20;;;;;;;0.40;0.20;;;17.10;99.90;;;;;;4991553;28;20879;-75
2021/06/13 05:47:46;;;;;;;0.40;0.20;;;17.20;99.90;;;;;;4991168;28;20387;-76
2021/06/13 05:50:14;;;;;;;0.40;0.30;;;17.20;99.90;;;;;;4991563;28;20485;-76
2021/06/13 05:52:39;;;;;;;0.40;0.25;;;17.40;99.90;;;;;;4990258;28;20950;-75
2021/06/13 05:55:06;;;;;;;0.40;0.20;;;17.50;99.90;;;;;;4990930;28;20447;-76
2021/06/13 05:57:32;;;;;;;0.40;0.20;;;17.60;99.90;;;;;;4991371;28;20398;-76
2021/06/13 06:00:09;;;;;;;0.40;0.30;;;17.70;99.90;;;;;;4990576;28;20387;-76
2021/06/13 06:02:35;;;;;;;0.40;0.30;;;17.70;99.90;;;;;;4991652;28;20489;-75
2021/06/13 06:05:01;;;;;;;0.40;0.20;;;17.70;99.90;;;;;;4990594;28;20474;-76
2021/06/13 06:07:27;;;;;;;0.40;0.30;;;17.60;99.90;;;;;;4991417;28;20387;-76
2021/06/13 06:09:53;;;;;;;0.40;0.20;;;17.60;99.90;;;;;;4987685;28;21017;-76
2021/06/13 06:12:18;;;;;;;0.40;0.20;;;17.60;99.90;;;;;;4985569;28;20414;-75
2021/06/13 06:14:45;;;;;;;0.40;0.20;;;17.50;99.90;;;;;;4990037;28;20441;-76
2021/06/13 06:17:11;;;;;;;0.40;0.20;;;17.70;99.90;;;;;;4991578;28;20398;-75
2021/06/13 06:19:38;;;;;;;0.40;0.23;;;17.80;99.90;;;;;;4994915;28;20521;-75
2021/06/13 06:22:04;;;;;;;0.40;0.30;;;17.90;99.90;;;;;;4991276;28;20394;-76
2021/06/13 06:24:31;;;;;;;0.40;0.30;;;17.90;99.90;;;;;;4989223;28;20401;-76
2021/06/13 06:26:56;;;;;;;0.40;0.20;;;17.90;99.90;;;;;;4990400;28;20468;-76
2021/06/13 06:29:23;;;;;;;0.40;0.20;;;17.90;99.90;;;;;;4993929;28;20473;-75
2021/06/13 06:31:48;;;;;;;0.40;0.20;;;17.90;99.90;;;;;;4993251;28;20422;-76
2021/06/13 06:34:15;;;;;;;0.40;0.30;;;17.80;99.90;;;;;;4994347;28;20896;-76
2021/06/13 06:36:41;;;;;;;0.40;0.20;;;18.00;99.90;;;;;;4994102;28;20393;-76
2021/06/13 06:39:07;;;;;;;0.40;0.30;;;18.10;99.90;;;;;;4993188;28;20802;-75
2021/06/13 06:41:32;;;;;;;0.40;0.20;;;18.10;99.90;;;;;;4993904;28;20383;-75
2021/06/13 06:43:58;;;;;;;0.40;0.20;;;18.20;99.90;;;;;;4975535;28;20415;-76
2021/06/13 06:46:24;;;;;;;0.40;0.20;;;18.20;99.90;;;;;;4994418;28;20379;-76
2021/06/13 06:48:49;;;;;;;0.40;0.20;;;18.10;99.90;;;;;;4991385;28;20457;-76
2021/06/13 06:51:15;;;;;;;0.40;0.22;;;18.10;99.90;;;;;;4993695;28;20395;-76
2021/06/13 06:53:41;;;;;;;0.40;0.20;;;18.10;99.90;;;;;;4994041;28;20383;-74
2021/06/13 06:56:07;;;;;;;0.40;0.20;;;18.10;99.90;;;;;;4993450;28;20457;-75
2021/06/13 06:58:33;;;;;;;0.40;0.30;;;18.20;99.90;;;;;;4994049;28;20382;-75
2021/06/13 07:00:58;;;;;;;0.40;0.30;;;18.20;99.90;;;;;;4981931;28;20921;-75
2021/06/13 07:03:24;;;;;;;0.40;0.30;;;18.30;99.90;;;;;;4994025;28;20398;-75
2021/06/13 07:05:50;;;;;;;0.40;0.20;;;18.30;99.90;;;;;;4992897;28;20398;-75
2021/06/13 07:08:15;;;;;;;0.40;0.30;;;18.40;99.90;;;;;;4993853;28;20391;-75
2021/06/13 07:10:41;;;;;;;0.40;0.30;;;18.40;99.90;;;;;;4993886;28;20743;-76
2021/06/13 07:13:07;;;;;;;0.40;0.40;;;18.30;99.90;;;;;;4993002;28;20525;-75
2021/06/13 07:15:33;;;;;;;0.40;0.30;;;18.40;99.90;;;;;;4993317;28;20802;-75
2021/06/13 07:17:58;;;;;;;0.40;0.23;;;18.50;99.90;;;;;;4992868;28;20448;-75
2021/06/13 07:20:24;;;;;;;0.40;0.30;;;18.60;99.90;;;;;;4993650;28;20379;-75
2021/06/13 07:22:50;;;;;;;0.40;0.30;;;18.60;99.90;;;;;;4992958;28;20394;-73
2021/06/13 07:25:15;;;;;;;0.40;0.20;;;18.60;99.90;;;;;;4992175;28;20805;-75
2021/06/13 07:27:42;;;;;;;0.40;0.30;;;18.60;99.90;;;;;;4988088;28;20868;-75
2021/06/13 07:30:11;;;;;;;0.40;0.20;;;18.70;99.90;;;;;;4988114;28;20408;-73
2021/06/13 07:32:36;;;;;;;0.40;0.30;;;18.70;99.90;;;;;;4991671;28;20418;-74
2021/06/13 07:35:04;;;;;;;0.40;0.20;;;18.80;99.90;;;;;;4990371;28;20397;-75
2021/06/13 07:37:30;;;;;;;0.40;0.20;;;19.00;99.90;;;;;;4987516;28;20387;-75
2021/06/13 07:39:55;;;;;;;0.40;0.30;;;18.90;99.90;;;;;;4991836;28;20390;-75
2021/06/13 07:42:21;;;;;;;0.40;0.30;;;19.00;99.90;;;;;;4992486;28;20900;-76
2021/06/13 07:44:48;;;;;;;0.40;0.20;;;19.10;99.90;;;;;;4992333;28;20390;-76
2021/06/13 07:47:14;;;;;;;0.40;0.20;;;19.10;99.90;;;;;;4992597;28;20449;-73
2021/06/13 07:49:39;;;;;;;0.40;0.30;;;19.20;99.90;;;;;;4990244;28;20383;-75
2021/06/13 07:52:05;;;;;;;0.40;0.20;;;19.20;99.90;;;;;;4992603;28;20414;-75
2021/06/13 07:54:31;;;;;;;0.40;0.30;;;19.30;99.90;;;;;;4992858;28;20534;-75
2021/06/13 07:56:57;;;;;;;0.40;0.30;;;19.30;99.90;;;;;;4992207;28;20387;-75
2021/06/13 07:59:22;;;;;;;0.40;0.20;;;19.20;99.90;;;;;;4992780;28;20448;-75
2021/06/13 08:01:48;;;;;;;0.40;0.20;;;19.30;99.90;;;;;;4988302;28;20403;-75
2021/06/13 08:04:14;;;;;;;0.40;0.20;;;19.40;99.90;;;;;;4989609;28;20391;-75
2021/06/13 08:06:40;;;;;;;0.40;0.20;;;19.50;99.90;;;;;;4990100;28;20462;-74
2021/06/13 08:09:06;;;;;;;0.40;0.30;;;19.60;99.90;;;;;;4987938;28;20427;-72
2021/06/13 08:11:32;;;;;;;0.40;0.30;;;19.70;99.90;;;;;;4987686;28;20521;-75
2021/06/13 08:13:58;;;;;;;0.40;0.30;;;19.80;99.90;;;;;;4973980;28;20418;-74
2021/06/13 08:16:24;;;;;;;0.40;0.20;;;19.70;99.90;;;;;;4992521;28;20391;-74
2021/06/13 08:18:50;;;;;;;0.40;0.20;;;19.90;99.90;;;;;;4991808;28;20874;-75
2021/06/13 08:21:16;;;;;;;0.40;0.30;;;19.90;99.90;;;;;;4992398;28;20941;-75
2021/06/13 08:23:41;;;;;;;0.40;0.20;;;19.80;99.90;;;;;;4992076;28;20399;-75
2021/06/13 08:26:07;;;;;;;0.40;0.30;;;19.90;99.90;;;;;;4991728;28;20393;-74
2021/06/13 08:28:33;;;;;;;0.40;0.30;;;20.00;99.90;;;;;;4992299;28;20473;-73
2021/06/13 08:30:58;;;;;;;0.40;0.30;;;20.20;99.90;;;;;;4989819;28;20398;-76
2021/06/13 08:33:24;;;;;;;0.40;0.30;;;20.20;99.90;;;;;;4989581;28;20422;-75
2021/06/13 08:35:51;;;;;;;0.40;0.20;;;20.20;99.90;;;;;;4991591;28;20863;-74
2021/06/13 08:38:18;;;;;;;0.40;0.20;;;20.30;99.90;;;;;;4991759;28;20474;-74
2021/06/13 08:40:43;;;;;;;0.40;0.20;;;20.40;99.90;;;;;;4989414;28;20401;-74
2021/06/13 08:43:09;;;;;;;0.40;0.20;;;20.30;99.90;;;;;;4988706;28;20406;-74
2021/06/13 08:45:36;;;;;;;0.40;0.20;;;20.30;99.90;;;;;;4991635;28;20946;-74
2021/06/13 08:48:03;;;;;;;0.40;0.20;;;20.30;99.90;;;;;;4991160;28;20394;-73
2021/06/13 08:50:30;;;;;;;0.40;0.20;;;20.30;99.90;;;;;;4992078;28;20398;-75
2021/06/13 08:52:56;;;;;;;0.40;0.25;;;20.40;99.90;;;;;;4989920;28;20770;-76
2021/06/13 08:55:22;;;;;;;0.40;0.20;;;20.60;99.90;;;;;;4990114;28;20454;-74
2021/06/13 08:57:50;;;;;;;0.40;0.30;;;20.60;99.90;;;;;;4990950;28;20378;-73
2021/06/13 09:00:18;;;;;;;0.40;0.30;;;20.60;99.90;;;;;;4991685;28;20437;-73
2021/06/13 09:02:44;;;;;;;0.40;0.25;;;20.60;99.90;;;;;;4987611;28;20725;-75
2021/06/13 09:05:11;;;;;;;0.40;0.30;;;20.70;99.90;;;;;;4951817;28;20499;-75
2021/06/13 09:07:47;;;;;;;0.40;0.30;;;20.70;99.90;;;;;;4973668;28;20410;-74
2021/06/13 09:10:14;;;;;;;0.40;0.20;;;20.80;99.90;;;;;;4986398;28;20453;-76
2021/06/13 09:12:39;;;;;;;0.50;0.30;;;20.80;99.90;;;;;;4987066;28;20489;-75
2021/06/13 09:15:06;;;;;;;0.40;0.30;;;20.80;99.90;;;;;;4984364;28;20430;-76
2021/06/13 09:17:32;;;;;;;0.40;0.23;;;20.90;99.90;;;;;;4987836;28;20379;-76
2021/06/13 09:20:04;;;;;;;0.40;0.20;;;20.90;99.90;;;;;;4985445;28;20398;-76
2021/06/13 09:22:30;;;;;;;0.40;0.20;;;21.20;99.90;;;;;;4983913;28;20426;-73
2021/06/13 09:25:15;;;;;;;0.40;0.20;;;21.30;99.90;;;;;;4986372;28;20490;-76
2021/06/13 09:28:01;;;;;;;0.40;0.30;;;21.40;99.90;;;;;;4987971;28;20397;-76
2021/06/13 09:30:33;;;;;;;0.40;0.30;;;21.30;99.90;;;;;;4987098;28;20751;-76
2021/06/13 09:33:25;;;;;;;0.40;0.20;;;21.10;99.90;;;;;;4984605;28;20793;-75
2021/06/13 09:35:52;;;;;;;0.40;0.20;;;21.20;99.90;;;;;;4986805;28;20395;-77
2021/06/13 09:38:26;;;;;;;0.40;0.20;;;21.20;99.90;;;;;;4986775;28;20708;-74
2021/06/13 09:41:12;;;;;;;0.40;0.30;;;21.20;99.90;;;;;;4986008;28;20735;-76
2021/06/13 09:43:42;;;;;;;0.40;0.20;;;21.40;99.90;;;;;;4986432;28;20433;-77
2021/06/13 09:46:10;;;;;;;0.40;0.30;;;21.60;99.90;;;;;;4986530;28;20391;-76
2021/06/13 09:48:41;;;;;;;0.40;0.30;;;21.60;99.90;;;;;;4985316;28;20382;-77
2021/06/13 09:51:13;;;;;;;0.40;0.30;;;21.90;99.50;;;;;;4986103;28;20774;-77
2021/06/13 09:53:44;;;;;;;0.40;0.30;;;22.00;99.60;;;;;;4983189;28;20493;-75
2021/06/13 09:56:16;;;;;;;0.40;0.30;;;22.10;99.90;;;;;;4969357;28;23953;-74
2021/06/13 09:59:00;;;;;;;0.40;0.30;;;22.00;97.50;;;;;;4971550;28;20396;-75
2021/06/13 10:01:31;;;;;;;0.40;0.30;;;21.90;97.50;;;;;;4971701;28;20783;-76
2021/06/13 10:03:58;;;;;;;0.40;0.30;;;22.00;98.10;;;;;;4985456;28;20462;-75
2021/06/13 10:06:28;;;;;;;0.40;0.30;;;22.00;97.30;;;;;;4970366;28;20396;-73
2021/06/13 10:08:56;;;;;;;0.40;0.22;;;22.00;96.80;;;;;;4971210;28;20448;-77
2021/06/13 10:11:22;;;;;;;0.40;0.20;;;22.10;97.10;;;;;;4971081;28;20403;-76
2021/06/13 10:13:50;;;;;;;0.40;0.30;;;22.20;97.50;;;;;;4970602;28;20451;-76
2021/06/13 10:16:24;;;;;;;0.40;0.20;;;22.10;96.00;;;;;;4970820;28;20396;-77
2021/06/13 10:19:06;;;;;;;0.40;0.30;;;22.40;97.60;;;;;;4971555;28;20915;-75
2021/06/13 10:21:40;;;;;;;0.40;0.20;;;22.60;95.70;;;;;;4969994;28;20392;-76
2021/06/13 10:24:12;;;;;;;0.40;0.30;;;22.70;94.90;;;;;;4971881;28;20384;-76
2021/06/13 10:26:44;;;;;;;0.40;0.30;;;22.60;95.40;;;;;;4971094;28;20753;-76
2021/06/13 10:29:11;;;;;;;0.50;0.40;;;22.60;93.40;;;;;;4970334;28;20392;-75
2021/06/13 10:31:37;;;;;;;0.40;0.30;;;22.80;93.80;;;;;;4972068;28;20415;-73
2021/06/13 10:34:03;;;;;;;0.40;0.30;;;22.50;93.00;;;;;;4970540;28;20447;-73
2021/06/13 10:36:32;;;;;;;0.40;0.20;;;22.40;93.30;;;;;;4971421;28;20392;-74
2021/06/13 10:38:58;;;;;;;0.40;0.30;;;22.40;93.70;;;;;;4970137;28;20409;-74
2021/06/13 10:41:24;;;;;;;0.40;0.30;;;22.30;94.60;;;;;;4970914;28;20389;-75
2021/06/13 10:43:49;;;;;;;0.40;0.30;;;22.30;94.00;;;;;;4970360;28;20408;-75
2021/06/13 10:46:19;;;;;;;0.40;0.30;;;22.70;94.60;;;;;;4970282;28;20389;-74
2021/06/13 10:48:51;;;;;;;0.40;0.30;;;22.90;92.40;;;;;;4970439;28;21115;-75
2021/06/13 10:51:35;;;;;;;0.40;0.30;;;22.80;92.90;;;;;;4969973;28;20451;-75
2021/06/13 10:54:30;;;;;;;0.40;0.20;;;23.00;93.20;;;;;;4969808;28;21042;-73
2021/06/13 10:57:05;;;;;;;0.40;0.20;;;22.90;92.70;;;;;;4986754;28;20456;-76
2021/06/13 10:59:35;;;;;;;0.40;0.23;;;23.10;92.90;;;;;;4970250;28;20399;-76
2021/06/13 11:02:08;;;;;;;0.40;0.30;;;23.60;92.70;;;;;;4970626;28;20717;-76
2021/06/13 11:04:54;;;;;;;0.40;0.30;;;23.90;93.40;;;;;;4968953;28;20400;-75
2021/06/13 11:07:28;;;;;;;0.40;0.20;;;23.70;93.70;;;;;;4969065;28;20446;-75
2021/06/13 11:10:13;;;;;;;0.40;0.30;;;23.70;94.70;;;;;;4985227;28;20400;-75
2021/06/13 11:12:49;;;;;;;0.40;0.30;;;23.80;93.70;;;;;;4969873;28;20424;-75
2021/06/13 11:15:22;;;;;;;0.40;0.30;;;23.70;92.30;;;;;;4967523;28;20416;-75
2021/06/13 11:18:08;;;;;;;0.40;0.30;;;23.90;92.10;;;;;;4968489;28;20396;-76
2021/06/13 11:23:30;;;;;;;0.40;0.30;;;24.30;92.40;;;;;;4970465;28;20524;-76
2021/06/13 11:25:57;;;;;;;0.40;0.30;;;24.20;91.00;;;;;;4952641;28;20742;-75
2021/06/13 11:28:31;;;;;;;0.40;0.20;;;24.50;90.30;;;;;;4969984;28;20384;-76
2021/06/13 11:30:59;;;;;;;0.50;0.40;;;24.90;91.20;;;;;;4969795;28;21080;-76
2021/06/13 11:33:40;;;;;;;0.40;0.22;;;25.00;91.50;;;;;;4970942;28;20438;-75
2021/06/13 11:36:29;;;;;;;0.40;0.30;;;25.10;90.30;;;;;;4971189;28;20867;-76
2021/06/13 11:39:04;;;;;;;0.40;0.20;;;24.80;86.70;;;;;;4975307;28;20753;-75
2021/06/13 11:41:34;;;;;;;0.40;0.30;;;25.40;87.50;;;;;;4971249;28;20428;-75
2021/06/13 11:44:04;;;;;;;0.40;0.30;;;24.30;85.60;;;;;;4970952;28;20408;-77
2021/06/13 11:46:38;;;;;;;0.40;0.20;;;25.10;84.60;;;;;;4973489;28;20447;-75
2021/06/13 11:49:06;;;;;;;0.40;0.30;;;26.00;84.90;;;;;;4963741;28;20506;-77
2021/06/13 11:51:47;;;;;;;0.40;0.30;;;26.90;82.00;;;;;;4960120;28;20539;-76
2021/06/13 11:54:39;;;;;;;0.45;0.30;;;27.30;81.20;;;;;;4969928;28;20463;-76
2021/06/13 11:57:06;;;;;;;0.40;0.20;;;28.00;76.90;;;;;;4973234;28;20410;-75
2021/06/13 11:59:35;;;;;;;0.40;0.20;;;28.20;72.90;;;;;;4972569;28;20385;-75
2021/06/13 12:02:05;;;;;;;0.40;0.30;;;26.50;77.00;;;;;;4971835;28;20462;-75
2021/06/13 12:04:31;;;;;;;0.40;0.30;;;26.50;81.70;;;;;;4972289;28;20479;-73
2021/06/13 12:06:59;;;;;;;0.40;0.30;;;25.80;78.40;;;;;;4975617;28;20846;-74
2021/06/13 12:09:29;;;;;;;0.40;0.30;;;26.40;76.20;;;;;;4991627;28;20731;-76
2021/06/13 12:11:59;;;;;;;0.40;0.20;;;26.80;75.10;;;;;;4992056;28;20471;-75
2021/06/13 12:14:41;;;;;;;0.40;0.30;;;26.50;76.50;;;;;;4991625;28;20418;-74
2021/06/13 12:17:19;;;;;;;0.40;0.20;;;26.20;73.30;;;;;;4991245;28;20461;-75
2021/06/13 12:19:51;;;;;;;0.40;0.20;;;26.30;80.40;;;;;;4992210;28;20457;-75
2021/06/13 12:22:21;;;;;;;0.40;0.20;;;26.10;76.90;;;;;;4991406;28;20425;-75
2021/06/13 12:27:27;;;;;;;0.40;0.30;;;26.60;73.40;;;;;;4971812;28;20396;-76
2021/06/13 12:29:55;;;;;;;0.40;0.20;;;26.80;79.50;;;;;;4972439;28;20497;-76
2021/06/13 12:32:22;;;;;;;0.40;0.30;;;26.90;74.90;;;;;;4971393;28;20420;-75
2021/06/13 12:34:54;;;;;;;0.40;0.20;;;27.40;72.10;;;;;;4972152;28;20471;-76
2021/06/13 12:37:24;;;;;;;0.40;0.20;;;27.20;75.60;;;;;;4971980;28;20788;-76
2021/06/13 12:39:57;;;;;;;0.40;0.20;;;27.10;73.10;;;;;;4972650;28;20709;-76
2021/06/13 12:42:23;;;;;;;0.40;0.20;;;27.60;75.00;;;;;;4986624;28;20828;-75
2021/06/13 12:44:59;;;;;;;0.50;0.30;;;27.50;72.70;;;;;;4972622;28;20408;-75
2021/06/13 12:47:25;;;;;;;0.40;0.20;;;27.50;68.70;;;;;;4972078;28;20388;-74
2021/06/13 12:49:52;;;;;;;0.40;0.20;;;27.60;66.80;;;;;;4972482;28;20436;-75
2021/06/13 12:52:19;;;;;;;0.50;0.30;;;27.20;69.20;;;;;;4971440;28;20412;-73
2021/06/13 12:54:54;;;;;;;0.40;0.20;;;26.20;68.30;;;;;;4972195;28;20718;-74
2021/06/13 12:57:21;;;;;;;0.50;0.30;;;26.00;77.20;;;;;;4971596;28;20800;-73
2021/06/13 12:59:47;;;;;;;0.40;0.30;;;26.30;69.90;;;;;;4972916;28;20384;-75
2021/06/13 13:02:14;;;;;;;0.50;0.30;;;26.80;75.70;;;;;;4972134;28;20411;-75
2021/06/13 13:04:52;;;;;;;0.40;0.20;;;26.50;74.10;;;;;;4987502;28;20396;-76